Time;durP1;ratioP1;P1;durP2;ratioP2;P2;SDS_P1;SDS_P2;PMS_P1;PMS_P2;Temp;Humidity;BMP_temperature;BMP_pressure;BME280_temperature;BME280_humidity;BME280_pressure;Samples;Min_cycle;Max_cycle;Signal;HPM_P1;HPM_P2
2023/01/02 00:00:24;;;;;;;6.60;4.50;;;;;;;;;;107451;1257;894171;-34
2023/01/02 00:03:14;;;;;;;7.10;4.90;;;;;;;;;;108009;1271;175759;-34
2023/01/02 00:05:44;;;;;;;7.30;5.30;;;;;;;;;;108029;1271;175761;-34
2023/01/02 00:08:17;;;;;;;7.10;4.90;;;;;;;;;;108123;1261;38205;-34
2023/01/02 00:10:47;;;;;;;8.30;5.40;;;;;;;;;;108193;1269;40690;-34
2023/01/02 00:13:16;;;;;;;7.00;4.90;;;;;;;;;;108199;1269;44150;-34
2023/01/02 00:15:48;;;;;;;7.20;4.80;;;;;;;;;;108078;1261;175789;-34
2023/01/02 00:18:18;;;;;;;7.70;5.10;;;;;;;;;;108137;1257;40505;-34
2023/01/02 00:20:47;;;;;;;7.70;5.30;;;;;;;;;;108136;1268;40034;-34
2023/01/02 00:23:17;;;;;;;7.80;5.30;;;;;;;;;;108123;1270;43274;-34
2023/01/02 00:25:48;;;;;;;7.00;4.80;;;;;;;;;;108110;1273;42118;-35
2023/01/02 00:28:18;;;;;;;8.30;5.30;;;;;;;;;;108157;1263;38174;-34
2023/01/02 00:30:47;;;;;;;7.80;4.80;;;;;;;;;;108216;1270;41278;-34
2023/01/02 00:33:17;;;;;;;8.50;5.50;;;;;;;;;;108243;1270;43322;-34
2023/01/02 00:35:49;;;;;;;9.10;5.10;;;;;;;;;;108237;1261;43509;-34
2023/01/02 00:38:19;;;;;;;7.40;4.80;;;;;;;;;;108255;1260;39083;-34
2023/01/02 00:40:49;;;;;;;7.70;4.60;;;;;;;;;;108121;1273;41793;-36
2023/01/02 00:43:20;;;;;;;7.90;5.20;;;;;;;;;;108088;1271;44507;-36
2023/01/02 00:45:52;;;;;;;7.70;5.00;;;;;;;;;;108091;1269;43855;-36
2023/01/02 00:48:24;;;;;;;7.40;4.70;;;;;;;;;;108106;1261;40436;-36
2023/01/02 00:50:53;;;;;;;7.70;4.90;;;;;;;;;;108184;1258;39845;-36
2023/01/02 00:53:23;;;;;;;8.50;5.20;;;;;;;;;;108184;1265;43331;-36
2023/01/02 00:55:52;;;;;;;6.90;4.80;;;;;;;;;;108131;1257;42261;-36
2023/01/02 00:58:22;;;;;;;7.40;4.60;;;;;;;;;;108185;1260;39406;-35
2023/01/02 01:00:52;;;;;;;8.10;5.00;;;;;;;;;;108126;1273;39876;-35
2023/01/02 01:03:21;;;;;;;7.50;5.30;;;;;;;;;;108151;1263;44581;-35
2023/01/02 01:05:51;;;;;;;7.70;5.10;;;;;;;;;;108219;1270;43878;-35
2023/01/02 01:08:20;;;;;;;6.90;4.90;;;;;;;;;;108104;1261;38115;-35
2023/01/02 01:10:50;;;;;;;6.90;4.80;;;;;;;;;;108206;1269;40095;-35
2023/01/02 01:13:20;;;;;;;7.00;4.90;;;;;;;;;;108226;1271;43333;-35
2023/01/02 01:15:50;;;;;;;7.40;4.90;;;;;;;;;;108216;1269;43463;-35
2023/01/02 01:18:19;;;;;;;8.00;5.30;;;;;;;;;;108204;1257;38062;-35
2023/01/02 01:20:49;;;;;;;7.80;4.80;;;;;;;;;;108144;1263;41174;-35
2023/01/02 01:23:19;;;;;;;7.20;5.00;;;;;;;;;;108145;1273;44903;-35
2023/01/02 01:25:49;;;;;;;7.40;5.20;;;;;;;;;;108207;1273;42389;-35
2023/01/02 01:28:18;;;;;;;7.50;5.00;;;;;;;;;;108177;1258;39494;-35
2023/01/02 01:30:48;;;;;;;7.20;4.90;;;;;;;;;;108285;1273;40105;-35
2023/01/02 01:33:20;;;;;;;8.60;5.40;;;;;;;;;;108061;1260;43509;-35
2023/01/02 01:35:52;;;;;;;6.50;4.40;;;;;;;;;;108220;1257;43366;-35
2023/01/02 01:38:22;;;;;;;8.10;4.90;;;;;;;;;;108208;1270;38587;-35
2023/01/02 01:40:51;;;;;;;7.20;4.70;;;;;;;;;;108157;1262;40283;-35
2023/01/02 01:43:37;;;;;;;7.20;4.80;;;;;;;;;;108181;1270;43726;-35
2023/01/02 01:46:16;;;;;;;6.90;4.90;;;;;;;;;;108171;1267;43854;-35
2023/01/02 01:48:49;;;;;;;6.90;5.00;;;;;;;;;;108106;1258;39064;-35
2023/01/02 01:51:21;;;;;;;6.60;4.90;;;;;;;;;;108219;1265;41747;-35
2023/01/02 01:53:55;;;;;;;7.20;5.10;;;;;;;;;;107540;1260;893497;-35
2023/01/02 01:56:26;;;;;;;7.20;4.80;;;;;;;;;;108228;1270;42490;-35
2023/01/02 01:58:56;;;;;;;7.60;5.10;;;;;;;;;;108163;1257;39114;-35
2023/01/02 02:01:26;;;;;;;7.20;4.60;;;;;;;;;;108180;1262;40526;-35
2023/01/02 02:03:56;;;;;;;7.50;5.50;;;;;;;;;;108155;1270;44531;-35
2023/01/02 02:06:26;;;;;;;7.20;5.00;;;;;;;;;;108120;1270;42320;-35
2023/01/02 02:09:00;;;;;;;7.40;4.90;;;;;;;;;;108035;1264;175451;-35
2023/01/02 02:11:30;;;;;;;6.20;4.20;;;;;;;;;;108221;1260;48128;-35
2023/01/02 02:14:01;;;;;;;6.80;4.80;;;;;;;;;;108236;1261;44030;-35
2023/01/02 02:16:41;;;;;;;6.50;4.50;;;;;;;;;;108224;1273;42295;-35
2023/01/02 02:20:00;;;;;;;7.10;4.60;;;;;;;;;;108178;1270;39265;-35
2023/01/02 02:22:59;;;;;;;6.60;4.30;;;;;;;;;;107966;1273;46542;-35
2023/01/02 02:26:11;;;;;;;6.80;4.50;;;;;;;;;;108119;1273;43880;-35
2023/01/02 02:29:31;;;;;;;6.20;4.40;;;;;;;;;;108129;1271;42796;-35
2023/01/02 02:32:10;;;;;;;7.00;4.70;;;;;;;;;;108145;1260;39104;-35
2023/01/02 02:34:52;;;;;;;7.00;4.60;;;;;;;;;;108166;1258;41206;-35
2023/01/02 02:37:31;;;;;;;7.60;4.80;;;;;;;;;;108190;1260;43663;-35
2023/01/02 02:40:11;;;;;;;6.90;4.70;;;;;;;;;;108062;1261;175466;-35
2023/01/02 02:42:58;;;;;;;7.40;4.80;;;;;;;;;;108230;1262;39125;-35
2023/01/02 02:45:41;;;;;;;7.80;4.70;;;;;;;;;;108118;1270;41021;-35
2023/01/02 02:48:20;;;;;;;7.60;5.00;;;;;;;;;;108160;1273;44827;-35
2023/01/02 02:50:57;;;;;;;6.20;4.60;;;;;;;;;;108093;1257;42436;-35
2023/01/02 02:53:33;;;;;;;7.50;5.00;;;;;;;;;;108190;1261;39146;-35
2023/01/02 02:56:09;;;;;;;6.10;4.40;;;;;;;;;;108167;1271;40570;-35
2023/01/02 02:58:41;;;;;;;7.00;4.60;;;;;;;;;;108209;1267;43610;-35
2023/01/02 03:01:18;;;;;;;7.90;4.90;;;;;;;;;;108128;1257;42449;-35
2023/01/02 03:03:48;;;;;;;6.70;4.70;;;;;;;;;;108146;1257;39306;-35
2023/01/02 03:06:39;;;;;;;6.50;4.70;;;;;;;;;;108153;1262;40223;-35
2023/01/02 03:09:18;;;;;;;7.00;4.90;;;;;;;;;;108111;1272;45062;-35
2023/01/02 03:12:03;;;;;;;7.30;5.00;;;;;;;;;;108125;1261;42506;-35
2023/01/02 03:14:44;;;;;;;7.10;4.80;;;;;;;;;;108195;1271;39206;-35
2023/01/02 03:17:28;;;;;;;7.20;4.30;;;;;;;;;;108199;1256;41753;-35
2023/01/02 03:20:01;;;;;;;;;;;;;;;;;;108180;1261;43812;-35
2023/01/02 03:22:37;;;;;;;6.60;4.30;;;;;;;;;;108125;1262;43371;-35
2023/01/02 03:25:12;;;;;;;6.40;4.50;;;;;;;;;;108136;1262;39277;-35
2023/01/02 03:27:45;;;;;;;6.70;4.60;;;;;;;;;;108112;1263;40498;-35
2023/01/02 03:30:17;;;;;;;;;;;;;;;;;;108125;1266;45112;-35
2023/01/02 03:32:54;;;;;;;6.90;4.20;;;;;;;;;;108116;1260;42345;-35
2023/01/02 03:35:30;;;;;;;6.10;3.90;;;;;;;;;;108151;1261;39458;-35
2023/01/02 03:38:03;;;;;;;6.50;4.30;;;;;;;;;;108165;1260;40576;-35
2023/01/02 03:40:42;;;;;;;6.60;4.70;;;;;;;;;;108197;1270;43653;-35
2023/01/02 03:43:16;;;;;;;6.50;4.50;;;;;;;;;;108140;1261;42618;-35
2023/01/02 03:45:54;;;;;;;7.00;4.70;;;;;;;;;;108109;1266;39125;-35
2023/01/02 03:48:34;;;;;;;6.60;4.50;;;;;;;;;;108112;1263;41515;-35
2023/01/02 03:51:05;;;;;;;6.60;4.60;;;;;;;;;;108095;1262;45070;-35
2023/01/02 03:53:39;;;;;;;6.30;4.20;;;;;;;;;;107987;1259;44938;-35
2023/01/02 03:56:22;;;;;;;6.70;4.70;;;;;;;;;;108161;1269;39195;-35
2023/01/02 03:58:58;;;;;;;7.30;4.80;;;;;;;;;;108189;1261;40463;-35
2023/01/02 04:01:36;;;;;;;7.70;4.60;;;;;;;;;;108169;1261;44993;-35
2023/01/02 04:04:14;;;;;;;6.70;4.40;;;;;;;;;;108076;1262;42777;-35
2023/01/02 04:06:54;;;;;;;6.40;4.60;;;;;;;;;;108116;1264;38950;-35
2023/01/02 04:09:29;;;;;;;6.60;5.00;;;;;;;;;;108117;1269;40692;-35
2023/01/02 04:12:03;;;;;;;6.50;4.20;;;;;;;;;;108112;1269;43662;-35
2023/01/02 04:14:40;;;;;;;7.40;4.30;;;;;;;;;;108114;1260;47732;-35
2023/01/02 04:17:10;;;;;;;6.70;4.50;;;;;;;;;;108179;1265;39204;-35
2023/01/02 04:19:46;;;;;;;6.40;4.20;;;;;;;;;;108186;1259;40501;-35
2023/01/02 04:22:23;;;;;;;7.60;4.70;;;;;;;;;;108185;1261;43657;-35
2023/01/02 04:24:59;;;;;;;6.70;4.70;;;;;;;;;;108058;1262;49017;-35
2023/01/02 04:27:33;;;;;;;6.40;4.50;;;;;;;;;;108145;1257;39304;-35
2023/01/02 04:30:07;;;;;;;6.70;4.30;;;;;;;;;;108137;1259;40808;-35
2023/01/02 04:32:42;;;;;;;6.10;4.30;;;;;;;;;;108122;1265;43625;-35
2023/01/02 04:35:16;;;;;;;7.00;4.40;;;;;;;;;;108133;1260;49480;-35
2023/01/02 04:37:46;;;;;;;6.10;4.40;;;;;;;;;;108065;1261;175734;-35
2023/01/02 04:40:23;;;;;;;6.30;4.40;;;;;;;;;;108236;1260;40678;-35
2023/01/02 04:42:53;;;;;;;6.70;4.30;;;;;;;;;;108189;1270;43620;-35
2023/01/02 04:45:26;;;;;;;6.40;4.40;;;;;;;;;;108241;1258;42637;-35
2023/01/02 04:47:56;;;;;;;6.30;4.70;;;;;;;;;;108110;1273;39014;-35
2023/01/02 04:50:25;;;;;;;6.60;4.30;;;;;;;;;;108096;1269;40347;-35
2023/01/02 04:52:55;;;;;;;6.20;4.00;;;;;;;;;;108129;1257;43173;-35
2023/01/02 04:55:25;;;;;;;6.70;4.20;;;;;;;;;;108019;1262;42256;-35
2023/01/02 04:57:54;;;;;;;6.70;4.10;;;;;;;;;;108195;1261;38486;-35
2023/01/02 05:00:24;;;;;;;6.60;4.60;;;;;;;;;;108227;1257;40284;-35
2023/01/02 05:02:56;;;;;;;6.30;3.90;;;;;;;;;;108207;1270;43299;-35
2023/01/02 05:05:29;;;;;;;6.60;4.30;;;;;;;;;;108096;1262;42571;-35
2023/01/02 05:07:59;;;;;;;7.20;4.80;;;;;;;;;;108142;1262;40237;-35
2023/01/02 05:10:34;;;;;;;7.50;4.30;;;;;;;;;;108104;1262;40732;-35
2023/01/02 05:13:09;;;;;;;7.10;4.40;;;;;;;;;;108082;1262;43514;-35
2023/01/02 05:15:44;;;;;;;6.70;4.40;;;;;;;;;;108109;1263;42508;-35
2023/01/02 05:18:21;;;;;;;7.00;4.30;;;;;;;;;;108164;1270;39150;-35
2023/01/02 05:20:55;;;;;;;7.40;4.40;;;;;;;;;;108158;1260;40486;-35
2023/01/02 05:26:12;;;;;;;6.80;4.10;;;;;;;;;;108040;1262;42650;-35
2023/01/02 05:28:42;;;;;;;6.50;4.10;;;;;;;;;;108159;1265;39059;-35
2023/01/02 05:31:15;;;;;;;6.60;4.10;;;;;;;;;;108142;1270;40714;-35
2023/01/02 05:33:47;;;;;;;;;;;;;;;;;;108159;1262;43794;-35
2023/01/02 05:36:20;;;;;;;6.90;4.30;;;;;;;;;;108157;1260;42139;-35
2023/01/02 05:38:53;;;;;;;7.00;4.60;;;;;;;;;;108183;1261;40390;-35
2023/01/02 05:41:23;;;;;;;6.30;3.90;;;;;;;;;;108223;1265;40587;-35
2023/01/02 05:43:54;;;;;;;6.50;4.30;;;;;;;;;;108219;1261;44753;-35
2023/01/02 05:46:27;;;;;;;6.90;4.90;;;;;;;;;;108073;1262;42538;-35
2023/01/02 05:48:57;;;;;;;6.80;4.70;;;;;;;;;;108177;1262;39249;-35
2023/01/02 05:51:35;;;;;;;8.10;5.30;;;;;;;;;;108116;1260;40264;-35
2023/01/02 05:54:08;;;;;;;8.40;5.30;;;;;;;;;;108100;1263;43752;-35
2023/01/02 05:56:38;;;;;;;7.00;5.00;;;;;;;;;;108138;1260;42604;-35
2023/01/02 05:59:08;;;;;;;7.90;5.00;;;;;;;;;;108197;1260;37975;-35
2023/01/02 06:01:39;;;;;;;7.70;5.40;;;;;;;;;;108216;1269;40332;-35
2023/01/02 06:04:11;;;;;;;;;;;;;;;;;;108195;1266;43600;-35
2023/01/02 06:06:51;;;;;;;7.50;5.70;;;;;;;;;;108073;1270;42224;-35
2023/01/02 06:09:23;;;;;;;7.40;4.80;;;;;;;;;;108090;1273;39163;-35
2023/01/02 06:12:01;;;;;;;7.60;5.10;;;;;;;;;;108093;1271;40670;-35
2023/01/02 06:14:36;;;;;;;7.20;5.10;;;;;;;;;;108084;1262;43833;-35
2023/01/02 06:17:06;;;;;;;8.50;5.50;;;;;;;;;;108106;1260;42457;-35
2023/01/02 06:19:43;;;;;;;8.00;5.10;;;;;;;;;;108135;1261;39144;-35
2023/01/02 06:22:28;;;;;;;6.40;5.10;;;;;;;;;;108161;1265;40607;-35
2023/01/02 06:25:04;;;;;;;7.70;5.30;;;;;;;;;;108157;1269;45032;-35
2023/01/02 06:27:38;;;;;;;7.10;5.10;;;;;;;;;;108098;1262;49305;-35
2023/01/02 06:30:11;;;;;;;7.60;5.60;;;;;;;;;;108040;1259;39728;-34
2023/01/02 06:32:43;;;;;;;7.40;5.00;;;;;;;;;;108035;1262;40643;-37
2023/01/02 06:35:16;;;;;;;8.40;5.60;;;;;;;;;;108021;1262;44975;-37
2023/01/02 06:37:48;;;;;;;7.80;5.60;;;;;;;;;;108290;1257;43351;-37
2023/01/02 06:40:18;;;;;;;7.90;5.50;;;;;;;;;;107993;1270;175490;-37
2023/01/02 06:42:52;;;;;;;7.70;5.30;;;;;;;;;;108199;1257;40659;-39
2023/01/02 06:45:31;;;;;;;7.20;5.20;;;;;;;;;;108159;1269;44918;-35
2023/01/02 06:48:02;;;;;;;7.60;5.40;;;;;;;;;;108127;1260;49220;-36
2023/01/02 06:50:39;;;;;;;8.70;5.60;;;;;;;;;;108144;1261;39080;-35
2023/01/02 06:53:14;;;;;;;8.20;5.50;;;;;;;;;;108193;1260;40485;-35
2023/01/02 06:55:53;;;;;;;7.20;5.10;;;;;;;;;;108154;1260;43451;-35
2023/01/02 06:58:28;;;;;;;6.90;5.10;;;;;;;;;;108291;1270;49546;-35
2023/01/02 07:01:04;;;;;;;7.10;5.00;;;;;;;;;;108160;1266;39238;-35
2023/01/02 07:03:40;;;;;;;7.00;4.70;;;;;;;;;;108215;1265;40453;-35
2023/01/02 07:06:15;;;;;;;8.30;5.10;;;;;;;;;;108176;1257;43766;-35
2023/01/02 07:08:47;;;;;;;7.40;5.20;;;;;;;;;;108131;1262;42302;-35
2023/01/02 07:11:28;;;;;;;6.70;4.90;;;;;;;;;;108132;1270;39211;-35
2023/01/02 07:14:00;;;;;;;7.60;5.10;;;;;;;;;;108116;1273;40541;-35
2023/01/02 07:16:39;;;;;;;7.30;4.60;;;;;;;;;;108078;1270;43653;-35
2023/01/02 07:19:23;;;;;;;8.40;4.90;;;;;;;;;;108195;1264;48635;-35
2023/01/02 07:21:55;;;;;;;9.20;5.30;;;;;;;;;;108170;1261;39147;-35
2023/01/02 07:24:28;;;;;;;10.20;5.40;;;;;;;;;;108434;1257;40576;-37
2023/01/02 07:27:02;;;;;;;7.20;4.40;;;;;;;;;;107985;1273;43831;-39
2023/01/02 07:29:42;;;;;;;8.10;4.90;;;;;;;;;;108202;1257;49784;-37
2023/01/02 07:32:14;;;;;;;6.80;4.70;;;;;;;;;;108250;1261;39091;-37
2023/01/02 07:34:52;;;;;;;7.10;4.40;;;;;;;;;;108137;1261;41914;-37
2023/01/02 07:37:29;;;;;;;8.60;5.00;;;;;;;;;;108184;1256;43793;-39
2023/01/02 07:40:01;;;;;;;7.10;5.00;;;;;;;;;;108159;1270;43767;-39
2023/01/02 07:42:36;;;;;;;7.70;4.90;;;;;;;;;;108128;1260;39251;-37
2023/01/02 07:45:10;;;;;;;7.60;4.80;;;;;;;;;;108129;1259;40488;-36
2023/01/02 07:47:43;;;;;;;6.50;4.40;;;;;;;;;;108121;1257;45013;-36
2023/01/02 07:50:15;;;;;;;9.70;4.80;;;;;;;;;;108259;1273;43826;-37
2023/01/02 07:52:49;;;;;;;8.40;4.80;;;;;;;;;;108232;1260;39209;-41
2023/01/02 07:55:19;;;;;;;7.20;4.50;;;;;;;;;;108220;1266;40662;-42
2023/01/02 07:57:48;;;;;;;8.20;4.50;;;;;;;;;;108183;1270;43239;-44
2023/01/02 08:00:21;;;;;;;10.80;4.70;;;;;;;;;;108071;1257;42627;-37
2023/01/02 08:02:54;;;;;;;7.20;4.50;;;;;;;;;;108044;1273;39141;-36
2023/01/02 08:05:32;;;;;;;7.70;4.80;;;;;;;;;;108021;1272;41806;-37
2023/01/02 08:08:02;;;;;;;6.40;4.20;;;;;;;;;;108015;1256;43721;-35
2023/01/02 08:10:31;;;;;;;7.00;4.50;;;;;;;;;;108226;1269;42160;-34
2023/01/02 08:13:01;;;;;;;7.80;4.20;;;;;;;;;;108226;1270;39374;-35
2023/01/02 08:15:34;;;;;;;8.70;4.10;;;;;;;;;;108173;1261;41394;-37
2023/01/02 08:18:10;;;;;;;7.10;4.90;;;;;;;;;;108187;1257;43640;-40
2023/01/02 08:20:50;;;;;;;8.90;5.90;;;;;;;;;;108068;1262;48522;-36
2023/01/02 08:23:23;;;;;;;9.50;5.60;;;;;;;;;;108124;1257;40348;-37
2023/01/02 08:25:58;;;;;;;7.90;5.70;;;;;;;;;;108116;1260;40516;-38
2023/01/02 08:28:28;;;;;;;7.40;4.80;;;;;;;;;;108116;1269;43947;-36
2023/01/02 08:31:03;;;;;;;8.90;5.80;;;;;;;;;;108214;1258;48469;-36
2023/01/02 08:33:34;;;;;;;10.10;6.50;;;;;;;;;;108266;1261;39242;-42
2023/01/02 08:36:04;;;;;;;7.60;5.40;;;;;;;;;;108209;1272;41791;-40
2023/01/02 08:38:34;;;;;;;8.00;5.50;;;;;;;;;;108121;1270;43668;-39
2023/01/02 08:41:07;;;;;;;9.90;5.70;;;;;;;;;;108185;1261;50497;-36
2023/01/02 08:43:45;;;;;;;10.90;5.90;;;;;;;;;;108245;1260;39093;-39
2023/01/02 08:46:15;;;;;;;7.80;5.40;;;;;;;;;;108222;1267;40623;-41
2023/01/02 08:48:44;;;;;;;8.80;5.60;;;;;;;;;;108183;1261;43414;-42
2023/01/02 08:51:16;;;;;;;10.00;5.30;;;;;;;;;;108090;1261;42140;-38
2023/01/02 08:53:48;;;;;;;8.50;5.60;;;;;;;;;;108106;1265;39244;-37
2023/01/02 08:56:24;;;;;;;7.60;5.50;;;;;;;;;;108112;1267;40776;-37
2023/01/02 08:59:07;;;;;;;8.60;5.60;;;;;;;;;;108058;1262;44885;-37
2023/01/02 09:01:41;;;;;;;9.20;5.20;;;;;;;;;;108010;1262;48399;-38
2023/01/02 09:04:17;;;;;;;8.50;5.70;;;;;;;;;;108005;1273;39226;-37
2023/01/02 09:06:48;;;;;;;7.90;5.10;;;;;;;;;;107387;1271;891680;-38
2023/01/02 09:09:17;;;;;;;8.00;4.90;;;;;;;;;;108028;1270;44175;-35
2023/01/02 09:11:50;;;;;;;7.70;4.90;;;;;;;;;;107980;1266;43400;-38
2023/01/02 09:14:22;;;;;;;8.20;4.90;;;;;;;;;;108080;1262;39082;-37
2023/01/02 09:16:52;;;;;;;8.60;5.40;;;;;;;;;;108133;1262;40165;-39
2023/01/02 09:19:27;;;;;;;8.90;5.40;;;;;;;;;;108121;1270;44891;-40
2023/01/02 09:22:04;;;;;;;9.00;5.20;;;;;;;;;;108125;1260;42683;-38
2023/01/02 09:24:34;;;;;;;9.70;4.80;;;;;;;;;;108077;1265;39141;-35
2023/01/02 09:27:04;;;;;;;7.60;5.00;;;;;;;;;;108201;1272;41187;-37
2023/01/02 09:29:34;;;;;;;7.50;4.90;;;;;;;;;;108181;1260;43340;-37
2023/01/02 09:32:04;;;;;;;7.10;4.60;;;;;;;;;;108182;1260;42579;-38
2023/01/02 09:34:36;;;;;;;7.30;4.80;;;;;;;;;;108175;1270;38326;-37
2023/01/02 09:37:06;;;;;;;7.20;4.90;;;;;;;;;;108249;1260;42844;-40
2023/01/02 09:39:36;;;;;;;7.20;5.20;;;;;;;;;;108276;1269;44036;-37
2023/01/02 09:42:07;;;;;;;7.70;4.90;;;;;;;;;;108082;1260;42328;-38
2023/01/02 09:44:42;;;;;;;7.50;4.70;;;;;;;;;;108200;1268;39076;-37
2023/01/02 09:47:19;;;;;;;7.20;5.10;;;;;;;;;;108215;1272;41655;-36
2023/01/02 09:49:52;;;;;;;7.60;4.80;;;;;;;;;;108195;1262;43748;-37
2023/01/02 09:52:26;;;;;;;7.00;4.70;;;;;;;;;;108179;1260;44183;-38
2023/01/02 09:55:03;;;;;;;7.20;4.90;;;;;;;;;;108261;1266;39116;-38
2023/01/02 09:57:45;;;;;;;7.10;4.80;;;;;;;;;;108239;1268;40706;-38
2023/01/02 10:00:22;;;;;;;7.70;4.80;;;;;;;;;;108230;1270;43857;-37
2023/01/02 10:03:10;;;;;;;7.90;5.10;;;;;;;;;;108261;1261;47501;-38
2023/01/02 10:06:09;;;;;;;8.10;4.90;;;;;;;;;;108123;1265;39145;-38
2023/01/02 10:08:52;;;;;;;7.90;5.10;;;;;;;;;;108029;1270;41870;-38
2023/01/02 10:11:37;;;;;;;6.60;4.90;;;;;;;;;;108129;1260;44003;-36
2023/01/02 10:14:18;;;;;;;8.30;4.90;;;;;;;;;;108253;1261;42556;-37
2023/01/02 10:16:53;;;;;;;10.30;5.10;;;;;;;;;;108188;1262;40372;-37
2023/01/02 10:19:41;;;;;;;8.60;4.90;;;;;;;;;;108135;1257;40642;-37
2023/01/02 10:22:19;;;;;;;7.50;4.70;;;;;;;;;;108100;1262;43635;-37
2023/01/02 10:24:58;;;;;;;8.80;5.10;;;;;;;;;;108069;1270;43641;-38
2023/01/02 10:27:33;;;;;;;7.50;4.40;;;;;;;;;;108134;1269;39308;-38
2023/01/02 10:30:17;;;;;;;8.10;5.00;;;;;;;;;;108124;1261;41180;-37
2023/01/02 10:32:55;;;;;;;6.60;4.80;;;;;;;;;;108093;1260;43688;-37
2023/01/02 10:35:35;;;;;;;8.50;5.30;;;;;;;;;;108155;1261;43944;-37
2023/01/02 10:38:05;;;;;;;7.50;4.90;;;;;;;;;;108158;1264;39078;-39
2023/01/02 10:40:43;;;;;;;8.10;5.00;;;;;;;;;;107989;1267;175648;-36
2023/01/02 10:43:14;;;;;;;7.70;5.10;;;;;;;;;;108083;1262;43624;-37
2023/01/02 10:45:45;;;;;;;7.30;5.50;;;;;;;;;;108154;1260;42694;-37
2023/01/02 10:48:17;;;;;;;7.30;4.80;;;;;;;;;;108066;1260;38856;-38
2023/01/02 10:50:53;;;;;;;7.00;4.80;;;;;;;;;;108098;1273;40531;-37
2023/01/02 10:53:33;;;;;;;6.80;4.70;;;;;;;;;;108077;1260;44031;-37
2023/01/02 10:56:06;;;;;;;6.90;5.00;;;;;;;;;;108149;1270;43843;-37
2023/01/02 10:58:45;;;;;;;7.50;5.20;;;;;;;;;;108096;1262;39103;-37
2023/01/02 11:01:17;;;;;;;7.80;5.00;;;;;;;;;;108112;1261;40709;-37
2023/01/02 11:04:08;;;;;;;6.90;5.20;;;;;;;;;;107990;1262;43681;-37
2023/01/02 11:06:51;;;;;;;7.90;5.20;;;;;;;;;;108009;1270;42565;-37
2023/01/02 11:09:26;;;;;;;7.30;5.30;;;;;;;;;;108058;1262;39232;-37
2023/01/02 11:12:09;;;;;;;6.80;4.50;;;;;;;;;;108091;1258;40672;-37
2023/01/02 11:14:42;;;;;;;6.20;4.30;;;;;;;;;;108033;1268;52099;-37
2023/01/02 11:17:18;;;;;;;8.00;5.20;;;;;;;;;;108148;1270;42627;-38
2023/01/02 11:19:51;;;;;;;5.70;4.20;;;;;;;;;;108047;1268;39151;-38
2023/01/02 11:22:34;;;;;;;6.40;4.50;;;;;;;;;;108070;1273;41621;-37
2023/01/02 11:25:09;;;;;;;7.20;4.80;;;;;;;;;;108033;1260;175681;-37
2023/01/02 11:27:43;;;;;;;7.00;4.90;;;;;;;;;;108163;1265;42765;-37
2023/01/02 11:30:35;;;;;;;8.40;4.90;;;;;;;;;;108163;1261;39090;-38
2023/01/02 11:33:24;;;;;;;7.10;5.40;;;;;;;;;;108140;1256;40685;-37
2023/01/02 11:35:56;;;;;;;7.50;4.70;;;;;;;;;;108140;1272;43626;-37
2023/01/02 11:38:42;;;;;;;7.30;4.80;;;;;;;;;;108141;1261;43822;-36
2023/01/02 11:43:47;;;;;;;6.60;4.40;;;;;;;;;;108134;1267;39066;-36
2023/01/02 11:44:22;;;;;;;8.50;5.20;;;;;;;;;;108085;1260;41806;-36
2023/01/02 11:46:53;;;;;;;6.70;4.60;;;;;;;;;;108125;1261;43364;-36
2023/01/02 11:49:34;;;;;;;7.20;4.70;;;;;;;;;;108141;1257;42840;-39
2023/01/02 11:52:14;;;;;;;7.00;4.40;;;;;;;;;;108163;1269;40446;-36
2023/01/02 11:54:54;;;;;;;7.40;4.20;;;;;;;;;;108133;1256;41801;-39
2023/01/02 11:57:35;;;;;;;7.00;4.40;;;;;;;;;;108136;1272;43833;-38
2023/01/02 12:00:13;;;;;;;7.40;4.60;;;;;;;;;;108103;1262;42578;-37
2023/01/02 12:02:49;;;;;;;8.40;4.60;;;;;;;;;;108102;1270;40375;-36
2023/01/02 12:05:36;;;;;;;6.10;4.40;;;;;;;;;;108118;1258;41946;-37
2023/01/02 12:08:15;;;;;;;7.40;4.60;;;;;;;;;;108165;1269;43711;-39
2023/01/02 12:10:58;;;;;;;7.80;5.10;;;;;;;;;;108171;1260;42669;-37
2023/01/02 12:14:04;;;;;;;6.20;4.50;;;;;;;;;;108164;1257;39200;-38
2023/01/02 12:16:43;;;;;;;6.90;4.90;;;;;;;;;;107823;1262;46198;-39
2023/01/02 12:19:53;;;;;;;6.80;4.50;;;;;;;;;;108118;1262;43865;-42
2023/01/02 12:22:51;;;;;;;6.50;4.70;;;;;;;;;;108078;1268;42500;-35
2023/01/02 12:25:48;;;;;;;7.40;4.80;;;;;;;;;;108083;1260;39286;-35
2023/01/02 12:28:42;;;;;;;6.50;4.50;;;;;;;;;;108157;1265;40687;-36
2023/01/02 12:31:32;;;;;;;6.80;4.90;;;;;;;;;;108129;1269;43724;-35
2023/01/02 12:34:15;;;;;;;7.10;4.80;;;;;;;;;;107982;1262;175642;-36
2023/01/02 12:37:02;;;;;;;6.40;4.50;;;;;;;;;;108088;1257;39180;-36
2023/01/02 12:39:54;;;;;;;6.30;4.60;;;;;;;;;;108152;1266;40536;-37
2023/01/02 12:42:44;;;;;;;8.10;4.90;;;;;;;;;;108166;1269;44927;-36
2023/01/02 12:45:28;;;;;;;7.30;4.80;;;;;;;;;;108144;1256;43923;-37
2023/01/02 12:48:14;;;;;;;7.00;4.40;;;;;;;;;;108141;1263;39126;-36
2023/01/02 12:51:13;;;;;;;6.70;4.30;;;;;;;;;;108005;1262;42086;-36
2023/01/02 12:54:00;;;;;;;8.00;4.30;;;;;;;;;;108081;1266;44696;-36
2023/01/02 12:57:03;;;;;;;6.50;4.30;;;;;;;;;;108019;1261;42958;-36
2023/01/02 12:59:56;;;;;;;6.90;4.80;;;;;;;;;;108197;1270;39091;-37
2023/01/02 13:02:49;;;;;;;6.00;4.40;;;;;;;;;;108198;1266;40570;-36
2023/01/02 13:05:24;;;;;;;6.60;4.50;;;;;;;;;;108016;1260;43790;-36
2023/01/02 13:07:58;;;;;;;5.60;4.30;;;;;;;;;;107992;1271;42719;-36
2023/01/02 13:10:32;;;;;;;9.20;4.90;;;;;;;;;;107983;1270;39286;-36
2023/01/02 13:13:02;;;;;;;6.60;4.10;;;;;;;;;;107970;1262;40719;-38
2023/01/02 13:15:36;;;;;;;6.80;4.30;;;;;;;;;;107997;1258;43767;-36
2023/01/02 13:18:13;;;;;;;6.20;4.50;;;;;;;;;;108172;1261;42744;-35
2023/01/02 13:20:54;;;;;;;6.90;4.80;;;;;;;;;;108201;1256;39104;-37
2023/01/02 13:23:34;;;;;;;6.60;4.50;;;;;;;;;;107868;1260;352073;-39
2023/01/02 13:26:08;;;;;;;6.90;4.50;;;;;;;;;;108184;1260;43727;-37
2023/01/02 13:28:42;;;;;;;6.80;4.50;;;;;;;;;;108031;1268;42578;-43
2023/01/02 13:31:11;;;;;;;;;;;;;;;;;;108143;1264;39166;-39
2023/01/02 13:34:08;;;;;;;6.90;4.30;;;;;;;;;;107995;1262;40230;-37
2023/01/02 13:36:43;;;;;;;6.70;4.40;;;;;;;;;;108111;1261;43794;-37
2023/01/02 13:39:20;;;;;;;5.70;4.20;;;;;;;;;;108162;1268;42525;-38
2023/01/02 13:44:44;;;;;;;7.20;4.40;;;;;;;;;;108128;1273;40831;-38
2023/01/02 13:47:19;;;;;;;6.70;4.40;;;;;;;;;;108093;1261;43708;-38
2023/01/02 13:50:08;;;;;;;6.80;4.20;;;;;;;;;;107832;1273;42562;-35
2023/01/02 13:52:40;;;;;;;6.10;4.10;;;;;;;;;;108038;1262;40542;-36
2023/01/02 13:55:32;;;;;;;6.10;4.10;;;;;;;;;;108149;1269;41766;-36
2023/01/02 13:58:38;;;;;;;6.30;4.40;;;;;;;;;;107905;1265;44910;-39
2023/01/02 14:01:40;;;;;;;6.60;4.40;;;;;;;;;;108175;1273;42493;-41
2023/01/02 14:04:38;;;;;;;5.90;4.00;;;;;;;;;;108199;1269;39126;-37
2023/01/02 14:07:46;;;;;;;6.50;4.20;;;;;;;;;;108123;1260;40713;-39
2023/01/02 14:10:39;;;;;;;6.20;4.00;;;;;;;;;;108139;1262;46024;-38
2023/01/02 14:13:21;;;;;;;6.30;4.30;;;;;;;;;;108178;1258;42694;-38
2023/01/02 14:16:27;;;;;;;8.00;4.50;;;;;;;;;;108172;1270;39133;-40
2023/01/02 14:19:20;;;;;;;7.20;3.70;;;;;;;;;;107853;1265;48784;-38
2023/01/02 14:22:00;;;;;;;6.40;3.80;;;;;;;;;;108024;1269;43730;-36
2023/01/02 14:24:36;;;;;;;6.50;4.30;;;;;;;;;;108109;1262;42647;-34
2023/01/02 14:27:18;;;;;;;7.40;4.30;;;;;;;;;;108146;1258;40687;-39
2023/01/02 14:29:51;;;;;;;5.90;4.20;;;;;;;;;;108011;1261;175672;-40
2023/01/02 14:32:30;;;;;;;6.00;4.20;;;;;;;;;;108128;1260;43636;-41
2023/01/02 14:35:01;;;;;;;5.70;4.20;;;;;;;;;;108111;1270;42681;-37
2023/01/02 14:37:39;;;;;;;6.60;4.10;;;;;;;;;;108082;1256;40362;-39
2023/01/02 14:40:35;;;;;;;6.60;4.10;;;;;;;;;;108090;1266;40625;-39
2023/01/02 14:43:29;;;;;;;6.00;4.20;;;;;;;;;;108163;1270;43614;-40
2023/01/02 14:46:08;;;;;;;7.00;4.40;;;;;;;;;;108182;1272;43187;-38
2023/01/02 14:48:53;;;;;;;6.30;4.50;;;;;;;;;;108029;1262;39177;-38
2023/01/02 14:51:30;;;;;;;7.10;4.20;;;;;;;;;;107951;1260;175661;-37
2023/01/02 14:54:06;;;;;;;5.90;4.20;;;;;;;;;;108168;1270;43808;-36
2023/01/02 14:56:38;;;;;;;6.40;4.10;;;;;;;;;;108170;1269;42686;-37
2023/01/02 14:59:20;;;;;;;6.40;4.10;;;;;;;;;;108108;1262;39131;-36
2023/01/02 15:01:54;;;;;;;6.30;3.80;;;;;;;;;;107997;1273;41601;-37
2023/01/02 15:04:38;;;;;;;7.50;4.10;;;;;;;;;;108071;1262;43620;-34
2023/01/02 15:07:17;;;;;;;6.80;4.40;;;;;;;;;;108091;1262;42336;-35
2023/01/02 15:09:52;;;;;;;6.10;4.20;;;;;;;;;;108175;1261;39150;-35
2023/01/02 15:15:15;;;;;;;6.60;4.50;;;;;;;;;;108192;1260;45207;-34
2023/01/02 15:17:50;;;;;;;6.10;4.10;;;;;;;;;;108141;1266;42472;-36
2023/01/02 15:20:27;;;;;;;5.90;4.30;;;;;;;;;;108062;1260;44928;-36
2023/01/02 15:23:01;;;;;;;6.70;4.50;;;;;;;;;;108162;1261;40674;-36
2023/01/02 15:25:35;;;;;;;5.80;3.80;;;;;;;;;;108217;1261;43675;-36
2023/01/02 15:28:23;;;;;;;6.30;4.10;;;;;;;;;;108125;1269;42504;-36
2023/01/02 15:31:12;;;;;;;6.90;4.10;;;;;;;;;;108190;1260;44896;-36
2023/01/02 15:33:53;;;;;;;6.60;4.60;;;;;;;;;;108235;1273;40506;-36
2023/01/02 15:36:36;;;;;;;6.20;4.30;;;;;;;;;;108239;1266;43578;-37